createdAt,value
2022-11-29T00:01:37.829Z,47.80
2022-11-29T00:04:05.640Z,51.30
2022-11-29T00:06:34.803Z,49.73
2022-11-29T00:09:07.770Z,53.47
2022-11-29T00:11:56.592Z,48.73
2022-11-29T00:14:26.058Z,52.17
2022-11-29T00:16:59.314Z,47.80
2022-11-29T00:19:26.498Z,57.30
2022-11-29T00:21:53.854Z,47.20
2022-11-29T00:24:21.235Z,51.70
2022-11-29T00:26:48.619Z,56.47
2022-11-29T00:29:16.443Z,51.07
2022-11-29T00:31:43.980Z,55.20
2022-11-29T00:34:12.547Z,54.53
2022-11-29T00:36:40.277Z,55.37
2022-11-29T00:39:07.823Z,55.00
2022-11-29T00:41:34.890Z,59.67
2022-11-29T00:44:01.917Z,60.97
2022-11-29T00:46:29.355Z,59.80
2022-11-29T00:48:56.359Z,54.33
2022-11-29T00:51:23.480Z,53.43
2022-11-29T00:53:50.549Z,54.17
2022-11-29T00:56:17.564Z,58.67
2022-11-29T00:58:44.594Z,57.10
2022-11-29T01:01:12.183Z,57.57
2022-11-29T01:03:39.410Z,61.40
2022-11-29T01:06:12.178Z,52.30
2022-11-29T01:08:39.764Z,54.83
2022-11-29T01:11:16.720Z,59.80
2022-11-29T01:13:44.602Z,59.77
2022-11-29T01:16:13.268Z,55.47
2022-11-29T01:18:41.063Z,53.83
2022-11-29T01:21:26.288Z,52.60
2022-11-29T01:23:55.418Z,53.37
2022-11-29T01:26:29.365Z,56.53
2022-11-29T01:28:58.975Z,55.70
2022-11-29T01:31:36.257Z,56.17
2022-11-29T01:34:06.391Z,59.73
2022-11-29T01:36:34.460Z,61.27
2022-11-29T01:39:04.836Z,56.97
2022-11-29T01:41:36.504Z,58.37
2022-11-29T01:44:12.074Z,52.57
2022-11-29T01:46:46.108Z,60.33
2022-11-29T01:49:24.204Z,56.67
2022-11-29T01:52:00.844Z,60.23
2022-11-29T01:54:29.946Z,56.47
2022-11-29T01:56:58.604Z,62.03
2022-11-29T01:59:29.591Z,59.03
2022-11-29T02:02:14.615Z,61.47
2022-11-29T02:04:45.304Z,60.27
2022-11-29T02:07:12.879Z,58.83
2022-11-29T02:09:39.906Z,57.07
2022-11-29T02:12:17.341Z,61.63
2022-11-29T02:15:08.780Z,58.00
2022-11-29T02:18:04.456Z,61.60
2022-11-29T02:21:16.271Z,56.77
2022-11-29T02:24:52.423Z,59.87
2022-11-29T02:27:49.903Z,63.37
2022-11-29T02:30:38.399Z,55.73
2022-11-29T02:33:28.976Z,59.10
2022-11-29T02:36:57.777Z,56.63
2022-11-29T02:39:41.408Z,56.77
2022-11-29T02:42:56.731Z,60.13
2022-11-29T02:45:56.235Z,55.90
2022-11-29T02:49:11.948Z,54.33
2022-11-29T02:52:04.960Z,62.57
2022-11-29T02:55:09.422Z,56.57
2022-11-29T02:57:50.439Z,58.30
2022-11-29T03:00:22.273Z,55.87
2022-11-29T03:03:22.469Z,60.83
2022-11-29T03:06:25.793Z,60.00
2022-11-29T03:09:19.078Z,58.93
2022-11-29T03:12:11.981Z,58.57
2022-11-29T03:15:01.941Z,59.67
2022-11-29T03:18:12.293Z,58.70
2022-11-29T03:21:09.691Z,57.17
2022-11-29T03:23:56.785Z,59.57
2022-11-29T03:26:53.352Z,60.03
2022-11-29T03:29:40.793Z,58.37
2022-11-29T03:32:34.922Z,60.23
2022-11-29T03:35:14.926Z,56.73
2022-11-29T03:38:25.224Z,60.70
2022-11-29T03:41:39.176Z,55.50
2022-11-29T03:44:25.281Z,60.17
2022-11-29T03:47:12.557Z,57.10
2022-11-29T03:49:52.362Z,59.30
2022-11-29T03:52:33.112Z,57.97
2022-11-29T03:55:09.266Z,61.30
2022-11-29T03:58:13.061Z,59.10
2022-11-29T04:00:48.979Z,60.13
2022-11-29T04:03:52.710Z,58.70
2022-11-29T04:06:46.883Z,61.07
2022-11-29T04:09:28.091Z,58.33
2022-11-29T04:12:35.702Z,51.27
2022-11-29T04:16:10.916Z,55.97
2022-11-29T04:19:36.633Z,66.53
2022-11-29T04:22:55.616Z,57.97
2022-11-29T04:25:54.858Z,58.10
2022-11-29T04:28:55.738Z,59.63
2022-11-29T04:32:33.234Z,59.13
2022-11-29T04:36:08.951Z,61.87
2022-11-29T04:39:33.562Z,58.17
2022-11-29T04:42:32.671Z,58.87
2022-11-29T04:45:46.720Z,55.37
2022-11-29T04:48:54.863Z,55.37
2022-11-29T04:51:58.605Z,54.23
2022-11-29T04:54:59.866Z,56.90
2022-11-29T04:58:06.426Z,60.17
2022-11-29T05:01:06.890Z,59.07
2022-11-29T05:03:46.996Z,55.67
2022-11-29T05:06:44.957Z,57.10
2022-11-29T05:10:19.750Z,56.20
2022-11-29T05:13:15.589Z,59.53
2022-11-29T05:16:32.342Z,57.97
2022-11-29T05:19:26.954Z,59.03
2022-11-29T05:22:30.972Z,59.50
2022-11-29T05:25:19.338Z,60.07
2022-11-29T05:28:16.564Z,60.73
2022-11-29T05:31:24.658Z,63.57
2022-11-29T05:34:34.719Z,66.67
2022-11-29T05:37:49.195Z,66.13
2022-11-29T05:41:34.586Z,55.07
2022-11-29T05:44:32.463Z,55.20
2022-11-29T05:47:09.981Z,59.30
2022-11-29T05:50:10.926Z,58.87
2022-11-29T05:53:04.902Z,63.37
2022-11-29T05:56:23.327Z,65.77
2022-11-29T05:59:21.766Z,64.90
2022-11-29T06:02:39.893Z,59.13
2022-11-29T06:05:17.603Z,56.43
2022-11-29T06:08:37.589Z,58.70
2022-11-29T06:11:41.799Z,56.37
2022-11-29T06:14:45.582Z,58.30
2022-11-29T06:17:50.025Z,57.03
2022-11-29T06:21:04.376Z,57.23
2022-11-29T06:24:05.143Z,59.10
2022-11-29T06:27:03.136Z,68.27
2022-11-29T06:30:09.146Z,63.47
2022-11-29T06:33:12.701Z,60.23
2022-11-29T06:36:12.916Z,59.17
2022-11-29T06:38:40.228Z,58.13
2022-11-29T06:41:13.770Z,54.40
2022-11-29T06:43:41.378Z,58.73
2022-11-29T06:46:46.502Z,61.23
2022-11-29T06:49:28.771Z,64.40
2022-11-29T06:52:39.646Z,56.87
2022-11-29T06:55:33.846Z,59.93
2022-11-29T06:58:36.164Z,62.10
2022-11-29T07:01:59.902Z,64.47
2022-11-29T07:05:25.435Z,59.73
2022-11-29T07:07:58.304Z,58.90
2022-11-29T07:10:26.707Z,70.63
2022-11-29T07:12:54.225Z,59.57
2022-11-29T07:15:23.318Z,60.40
2022-11-29T07:18:08.775Z,61.53
2022-11-29T07:21:04.616Z,58.50
2022-11-29T07:24:19.103Z,58.07
2022-11-29T07:27:25.807Z,58.27
2022-11-29T07:30:01.441Z,53.23
2022-11-29T07:33:14.277Z,65.37
2022-11-29T07:36:13.149Z,54.37
2022-11-29T07:39:24.613Z,62.93
2022-11-29T07:42:28.074Z,62.30
2022-11-29T07:45:26.679Z,55.07
2022-11-29T07:47:53.738Z,57.67
2022-11-29T07:50:21.843Z,60.03
2022-11-29T07:52:49.488Z,60.20
2022-11-29T07:55:23.584Z,59.50
2022-11-29T07:57:52.137Z,53.27
2022-11-29T08:00:21.214Z,60.10
2022-11-29T08:02:50.131Z,61.43
2022-11-29T08:05:17.835Z,57.50
2022-11-29T08:07:46.342Z,55.47
2022-11-29T08:10:16.824Z,51.40
2022-11-29T08:12:50.159Z,54.03
2022-11-29T08:15:23.156Z,48.40
2022-11-29T08:17:50.958Z,53.73
2022-11-29T08:20:18.108Z,54.63
2022-11-29T08:22:45.358Z,52.27
2022-11-29T08:25:12.448Z,56.03
2022-11-29T08:27:39.634Z,51.23
2022-11-29T08:30:08.159Z,51.27
2022-11-29T08:32:35.340Z,49.10
2022-11-29T08:35:02.421Z,50.60
2022-11-29T08:37:29.484Z,49.90
2022-11-29T08:39:58.228Z,47.77
2022-11-29T08:42:27.601Z,50.00
2022-11-29T08:44:54.545Z,62.00
2022-11-29T08:47:36.865Z,50.37
2022-11-29T08:50:30.606Z,50.30
2022-11-29T08:53:17.215Z,52.20
2022-11-29T08:55:46.480Z,47.90
2022-11-29T08:58:15.783Z,48.73
2022-11-29T09:00:48.618Z,48.60
2022-11-29T09:03:34.496Z,47.37
2022-11-29T09:06:15.683Z,52.90
2022-11-29T09:08:44.187Z,48.50
2022-11-29T09:11:17.347Z,49.03
2022-11-29T09:13:49.186Z,51.93
2022-11-29T09:16:20.542Z,51.20
2022-11-29T09:18:52.574Z,52.40
2022-11-29T09:21:19.713Z,48.77
2022-11-29T09:23:46.858Z,50.40
2022-11-29T09:26:20.025Z,52.07
2022-11-29T09:28:47.319Z,50.40
2022-11-29T09:31:18.037Z,47.77
2022-11-29T09:33:45.737Z,50.00
2022-11-29T09:36:16.107Z,50.17
2022-11-29T09:38:43.104Z,47.97
2022-11-29T09:41:54.863Z,47.50
2022-11-29T09:45:02.168Z,53.70
2022-11-29T09:48:02.274Z,46.03
2022-11-29T09:50:37.064Z,50.27
2022-11-29T09:54:07.462Z,49.50
2022-11-29T09:56:49.588Z,46.47
2022-11-29T09:59:51.463Z,47.30
2022-11-29T10:02:21.858Z,49.97
2022-11-29T10:05:07.210Z,51.70
2022-11-29T10:07:48.444Z,49.97
2022-11-29T10:10:56.208Z,49.80
2022-11-29T10:13:34.130Z,51.40
2022-11-29T10:16:45.197Z,49.33
2022-11-29T10:19:50.917Z,49.87
2022-11-29T10:22:36.571Z,54.10
2022-11-29T10:25:07.041Z,49.03
2022-11-29T10:27:35.657Z,50.50
2022-11-29T10:30:02.714Z,44.77
2022-11-29T10:32:34.132Z,46.20
2022-11-29T10:35:01.558Z,53.30
2022-11-29T10:37:32.744Z,48.07
2022-11-29T10:40:10.232Z,55.70
2022-11-29T10:42:52.348Z,51.43
2022-11-29T10:45:44.159Z,49.97
2022-11-29T10:48:21.725Z,54.23
2022-11-29T10:50:51.715Z,54.17
2022-11-29T10:53:30.844Z,53.27
2022-11-29T10:56:24.172Z,53.17
2022-11-29T10:59:11.915Z,57.40
2022-11-29T11:01:43.747Z,51.90
2022-11-29T11:04:45.336Z,56.27
2022-11-29T11:07:36.283Z,56.17
2022-11-29T11:10:22.099Z,54.20
2022-11-29T11:13:30.923Z,56.43
2022-11-29T11:16:20.097Z,74.73
2022-11-29T11:18:48.409Z,56.53
2022-11-29T11:21:21.457Z,55.40
2022-11-29T11:24:02.881Z,53.90
2022-11-29T11:26:45.159Z,51.83
2022-11-29T11:29:41.225Z,56.43
2022-11-29T11:32:19.896Z,54.67
2022-11-29T11:35:00.755Z,54.60
2022-11-29T11:37:33.030Z,53.40
2022-11-29T11:40:28.969Z,53.10
2022-11-29T11:43:02.429Z,56.97
2022-11-29T11:45:36.467Z,53.97
2022-11-29T11:48:19.057Z,59.20
2022-11-29T11:50:57.715Z,57.07
2022-11-29T11:53:36.840Z,56.23
2022-11-29T11:56:11.851Z,55.50
2022-11-29T11:58:57.139Z,57.70
2022-11-29T12:01:36.767Z,57.90
2022-11-29T12:04:27.345Z,53.73
2022-11-29T12:07:44.984Z,52.27
2022-11-29T12:10:26.812Z,58.43
2022-11-29T12:12:55.929Z,54.93
2022-11-29T12:15:32.502Z,61.13
2022-11-29T12:18:25.292Z,56.40
2022-11-29T12:21:16.612Z,55.13
2022-11-29T12:24:23.688Z,52.33
2022-11-29T12:26:59.534Z,56.47
2022-11-29T12:29:34.843Z,60.37
2022-11-29T12:33:07.165Z,56.37
2022-11-29T12:36:19.359Z,55.67
2022-11-29T12:39:31.676Z,53.60
2022-11-29T12:42:41.456Z,59.83
2022-11-29T12:46:12.798Z,64.00
2022-11-29T12:48:49.503Z,54.60
2022-11-29T12:51:37.327Z,57.10
2022-11-29T12:54:47.935Z,58.30
2022-11-29T12:58:05.706Z,57.57
2022-11-29T13:01:16.163Z,57.83
2022-11-29T13:04:22.196Z,58.37
2022-11-29T13:07:34.574Z,56.80
2022-11-29T13:10:38.965Z,53.23
2022-11-29T13:13:37.423Z,59.83
2022-11-29T13:16:32.203Z,55.37
2022-11-29T13:19:04.939Z,59.00
2022-11-29T13:21:40.368Z,60.57
2022-11-29T13:24:17.874Z,60.43
2022-11-29T13:26:45.856Z,60.07
2022-11-29T13:29:22.455Z,62.77
2022-11-29T13:31:50.042Z,61.00
2022-11-29T13:34:47.196Z,62.97
2022-11-29T13:37:56.923Z,66.00
2022-11-29T13:41:17.051Z,69.60
2022-11-29T13:44:34.342Z,60.60
2022-11-29T13:47:15.549Z,65.63
2022-11-29T13:50:26.965Z,60.53
2022-11-29T13:53:19.321Z,61.63
2022-11-29T13:56:02.541Z,61.13
2022-11-29T13:58:30.489Z,76.17
2022-11-29T14:01:14.361Z,97.90
2022-11-29T14:03:48.885Z,59.57
2022-11-29T14:06:21.843Z,66.20
2022-11-29T14:09:25.689Z,62.33
2022-11-29T14:12:27.553Z,73.73
2022-11-29T14:15:21.718Z,80.63
2022-11-29T14:18:12.106Z,59.20
2022-11-29T14:20:54.319Z,69.70
2022-11-29T14:23:40.442Z,58.27
2022-11-29T14:26:07.320Z,59.97
2022-11-29T14:28:41.216Z,57.80
2022-11-29T14:31:10.325Z,60.03
2022-11-29T14:34:13.135Z,65.63
2022-11-29T14:37:04.482Z,64.77
2022-11-29T14:39:42.054Z,64.80
2022-11-29T14:42:23.444Z,60.53
2022-11-29T14:45:00.617Z,58.67
2022-11-29T14:47:47.692Z,59.17
2022-11-29T14:50:40.792Z,65.17
2022-11-29T14:53:32.915Z,67.03
2022-11-29T14:56:39.061Z,68.67
2022-11-29T14:59:53.217Z,61.90
2022-11-29T15:02:42.613Z,68.93
2022-11-29T15:05:45.067Z,64.77
2022-11-29T15:08:27.106Z,65.23
2022-11-29T15:11:34.117Z,66.80
2022-11-29T15:14:49.590Z,64.37
2022-11-29T15:17:27.583Z,60.57
2022-11-29T15:20:30.851Z,67.43
2022-11-29T15:23:10.867Z,65.97
2022-11-29T15:26:00.620Z,64.47
2022-11-29T15:28:30.081Z,63.97
2022-11-29T15:31:12.136Z,64.03
2022-11-29T15:33:45.974Z,67.40
2022-11-29T15:36:21.888Z,62.00
2022-11-29T15:38:56.830Z,64.67
2022-11-29T15:41:35.264Z,63.33
2022-11-29T15:44:06.438Z,58.57
2022-11-29T15:46:35.674Z,64.07
2022-11-29T15:49:26.324Z,65.67
2022-11-29T15:52:31.498Z,64.73
2022-11-29T15:55:04.712Z,70.13
2022-11-29T15:57:45.084Z,59.40
2022-11-29T16:00:23.777Z,66.93
2022-11-29T16:02:59.322Z,61.80
2022-11-29T16:05:37.424Z,59.97
2022-11-29T16:08:16.332Z,61.50
2022-11-29T16:10:49.302Z,66.03
2022-11-29T16:13:40.410Z,71.43
2022-11-29T16:16:22.462Z,60.87
2022-11-29T16:18:50.791Z,61.50
2022-11-29T16:21:30.071Z,61.27
2022-11-29T16:23:58.543Z,63.97
2022-11-29T16:26:39.047Z,71.57
2022-11-29T16:29:18.694Z,61.57
2022-11-29T16:31:45.763Z,69.27
2022-11-29T16:34:29.749Z,68.90
2022-11-29T16:37:22.022Z,64.97
2022-11-29T16:39:55.283Z,57.03
2022-11-29T16:42:32.668Z,64.40
2022-11-29T16:45:02.478Z,66.83
2022-11-29T16:47:46.259Z,62.87
2022-11-29T16:50:21.854Z,65.87
2022-11-29T16:52:56.140Z,66.63
2022-11-29T16:55:24.574Z,58.10
2022-11-29T16:57:52.182Z,67.30
2022-11-29T17:00:33.220Z,63.53
2022-11-29T17:03:00.501Z,62.57
2022-11-29T17:05:27.772Z,63.63
2022-11-29T17:07:55.419Z,67.57
2022-11-29T17:10:25.491Z,69.33
2022-11-29T17:12:52.791Z,62.20
2022-11-29T17:15:20.016Z,63.93
2022-11-29T17:17:47.069Z,64.77
2022-11-29T17:20:14.536Z,60.67
2022-11-29T17:22:41.982Z,65.07
2022-11-29T17:25:10.712Z,64.13
2022-11-29T17:27:38.317Z,64.40
2022-11-29T17:30:07.945Z,67.90
2022-11-29T17:32:38.583Z,68.53
2022-11-29T17:35:07.699Z,64.90
2022-11-29T17:37:34.711Z,59.57
2022-11-29T17:40:01.730Z,62.60
2022-11-29T17:42:28.786Z,62.77
2022-11-29T17:44:55.840Z,69.93
2022-11-29T17:47:22.803Z,68.43
2022-11-29T17:49:49.854Z,65.43
2022-11-29T17:52:16.882Z,69.80
2022-11-29T17:54:44.057Z,77.30
2022-11-29T17:57:11.293Z,69.90
2022-11-29T17:59:38.249Z,64.83
2022-11-29T18:02:05.231Z,62.83
2022-11-29T18:04:32.205Z,68.23
2022-11-29T18:06:59.256Z,68.33
2022-11-29T18:09:26.218Z,64.57
2022-11-29T18:11:53.235Z,62.70
2022-11-29T18:14:28.328Z,69.93
2022-11-29T18:16:55.551Z,64.27
2022-11-29T18:19:23.549Z,73.17
2022-11-29T18:21:51.444Z,71.40
2022-11-29T18:24:19.009Z,64.67
2022-11-29T18:26:46.431Z,67.57
2022-11-29T18:29:13.573Z,64.07
2022-11-29T18:31:44.508Z,68.10
2022-11-29T18:34:14.119Z,70.33
2022-11-29T18:36:45.601Z,67.40
2022-11-29T18:39:16.615Z,67.20
2022-11-29T18:41:48.679Z,71.20
2022-11-29T18:44:20.081Z,66.23
2022-11-29T18:46:47.951Z,67.13
2022-11-29T18:49:17.907Z,68.03
2022-11-29T18:51:46.636Z,70.20
2022-11-29T18:54:16.838Z,71.43
2022-11-29T18:56:45.361Z,71.07
2022-11-29T18:59:17.867Z,72.27
2022-11-29T19:01:47.887Z,75.23
2022-11-29T19:04:20.596Z,69.70
2022-11-29T19:06:48.181Z,72.57
2022-11-29T19:09:21.864Z,71.17
2022-11-29T19:11:49.776Z,73.33
2022-11-29T19:14:17.064Z,73.97
2022-11-29T19:16:47.508Z,67.27
2022-11-29T19:19:14.600Z,71.73
2022-11-29T19:21:42.110Z,73.73
2022-11-29T19:24:14.861Z,73.97
2022-11-29T19:26:45.843Z,76.33
2022-11-29T19:29:17.299Z,72.90
2022-11-29T19:31:44.497Z,74.67
2022-11-29T19:34:11.670Z,77.00
2022-11-29T19:36:43.871Z,78.90
2022-11-29T19:39:14.240Z,72.80
2022-11-29T19:41:45.335Z,71.93
2022-11-29T19:44:12.981Z,70.03
2022-11-29T19:46:45.595Z,78.07
2022-11-29T19:49:13.217Z,80.97
2022-11-29T19:51:40.630Z,68.63
2022-11-29T19:54:10.682Z,73.43
2022-11-29T19:56:38.708Z,84.97
2022-11-29T19:59:08.182Z,82.27
2022-11-29T20:01:43.685Z,82.70
2022-11-29T20:04:13.635Z,78.80
2022-11-29T20:06:41.388Z,76.03
2022-11-29T20:09:08.507Z,79.53
2022-11-29T20:11:35.721Z,76.97
2022-11-29T20:14:05.552Z,75.50
2022-11-29T20:16:33.464Z,73.90
2022-11-29T20:19:01.631Z,75.33
2022-11-29T20:21:33.653Z,76.13
2022-11-29T20:24:07.552Z,77.33
2022-11-29T20:26:39.398Z,78.97
2022-11-29T20:29:08.456Z,80.97
2022-11-29T20:31:38.740Z,81.10
2022-11-29T20:34:06.736Z,80.53
2022-11-29T20:37:07.356Z,80.70
2022-11-29T20:40:08.317Z,77.53
2022-11-29T20:43:23.927Z,84.50
2022-11-29T20:45:51.203Z,78.37
2022-11-29T20:48:22.309Z,83.97
2022-11-29T20:50:59.495Z,79.23
2022-11-29T20:53:46.032Z,77.23
2022-11-29T20:56:13.082Z,79.23
2022-11-29T20:58:40.617Z,80.87
2022-11-29T21:01:08.000Z,78.83
2022-11-29T21:03:35.638Z,84.00
2022-11-29T21:06:05.795Z,80.17
2022-11-29T21:08:33.646Z,82.97
2022-11-29T21:11:10.317Z,84.83
2022-11-29T21:13:38.280Z,80.53
2022-11-29T21:16:06.187Z,85.27
2022-11-29T21:18:34.624Z,90.57
2022-11-29T21:21:53.376Z,82.73
2022-11-29T21:25:14.398Z,83.40
2022-11-29T21:27:41.963Z,84.10
2022-11-29T21:30:24.900Z,87.33
2022-11-29T21:32:53.073Z,84.00
2022-11-29T21:35:20.061Z,89.97
2022-11-29T21:37:47.153Z,80.63
2022-11-29T21:40:15.083Z,81.07
2022-11-29T21:42:42.225Z,100.97
2022-11-29T21:45:15.347Z,82.63
2022-11-29T21:47:44.468Z,84.90
2022-11-29T21:50:14.007Z,86.83
2022-11-29T21:52:41.096Z,81.47
2022-11-29T21:55:08.881Z,86.87
2022-11-29T21:57:36.102Z,81.50
2022-11-29T22:00:04.788Z,86.27
2022-11-29T22:02:31.899Z,87.87
2022-11-29T22:04:58.998Z,92.40
2022-11-29T22:07:26.005Z,88.87
2022-11-29T22:09:52.940Z,84.93
2022-11-29T22:12:33.916Z,82.37
2022-11-29T22:15:01.809Z,87.73
2022-11-29T22:17:28.798Z,85.87
2022-11-29T22:19:55.791Z,87.00
2022-11-29T22:22:27.068Z,79.77
2022-11-29T22:24:55.024Z,85.40
2022-11-29T22:27:22.008Z,91.03
2022-11-29T22:29:49.081Z,85.93
2022-11-29T22:32:16.108Z,88.57
2022-11-29T22:34:43.167Z,86.17
2022-11-29T22:37:10.233Z,85.63
2022-11-29T22:39:37.184Z,91.00
2022-11-29T22:42:04.297Z,88.37
2022-11-29T22:44:31.338Z,90.57
2022-11-29T22:46:58.364Z,84.77
2022-11-29T22:49:25.509Z,87.43
2022-11-29T22:51:52.559Z,86.23
2022-11-29T22:54:20.205Z,83.90
2022-11-29T22:56:47.573Z,88.07
2022-11-29T22:59:14.648Z,90.77
2022-11-29T23:01:42.791Z,80.60
2022-11-29T23:04:12.186Z,88.40
2022-11-29T23:06:43.663Z,76.60
2022-11-29T23:09:20.969Z,85.73
2022-11-29T23:11:53.875Z,90.97
2022-11-29T23:14:22.127Z,92.73
2022-11-29T23:16:49.439Z,82.87
2022-11-29T23:19:17.186Z,88.37
2022-11-29T23:21:45.754Z,83.47
2022-11-29T23:24:15.165Z,87.53
2022-11-29T23:26:46.856Z,82.73
2022-11-29T23:29:18.150Z,81.80
2022-11-29T23:31:46.586Z,86.70
2022-11-29T23:34:14.221Z,84.77
2022-11-29T23:36:41.478Z,80.47
2022-11-29T23:39:08.806Z,83.90
2022-11-29T23:41:37.142Z,91.60
2022-11-29T23:44:06.362Z,84.90
2022-11-29T23:46:34.939Z,87.67
2022-11-29T23:49:02.201Z,86.37
2022-11-29T23:51:29.350Z,83.77
2022-11-29T23:53:56.504Z,85.43
2022-11-29T23:56:23.562Z,84.67
2022-11-29T23:58:50.671Z,87.97
